Time;durP1;ratioP1;P1;durP2;ratioP2;P2;SDS_P1;SDS_P2;PMS_P1;PMS_P2;Temp;Humidity;BMP_temperature;BMP_pressure;BME280_temperature;BME280_humidity;BME280_pressure;Samples;Min_cycle;Max_cycle;Signal;HPM_P1;HPM_P2
2021/06/13 00:01:42;;;;;;;4.37;2.77;;;;;;;39.01;40.90;161477.53;1761299;80;21193;-80
2021/06/13 00:04:14;;;;;;;3.45;2.25;;;;;;;39.04;40.86;161485.59;1749919;82;21245;-80
2021/06/13 00:06:51;;;;;;;3.27;2.77;;;;;;;39.01;40.86;161477.53;1771015;80;21344;-80
2021/06/13 00:09:22;;;;;;;3.95;2.60;;;;;;;38.97;40.89;161468.16;1749910;82;21212;-81
2021/06/13 00:11:55;;;;;;;3.50;2.72;;;;;;;38.92;40.98;161452.11;1722799;82;21708;-80
2021/06/13 00:14:27;;;;;;;4.20;2.95;;;;;;;38.87;41.04;161440.05;1752369;80;21189;-79
2021/06/13 00:17:00;;;;;;;4.62;2.83;;;;;;;38.81;41.12;161423.94;1749969;80;21229;-81
2021/06/13 00:19:35;;;;;;;3.58;2.60;;;;;;;38.78;41.19;161414.56;1750009;82;21214;-79
2021/06/13 00:22:08;;;;;;;4.78;2.72;;;;;;;38.77;41.20;161413.25;1749983;82;21253;-81
2021/06/13 00:24:41;;;;;;;4.12;2.90;;;;;;;38.79;41.17;161417.25;1759326;80;21195;-79
2021/06/13 00:27:13;;;;;;;3.50;2.80;;;;;;;38.80;41.10;161421.25;1786435;80;21297;-80
2021/06/13 00:29:46;;;;;;;2.85;2.50;;;;;;;38.81;41.07;161423.94;1730701;80;21174;-81
2021/06/13 00:32:18;;;;;;;3.70;3.08;;;;;;;38.72;41.15;161399.81;1786549;80;21344;-80
2021/06/13 00:34:51;;;;;;;3.92;2.90;;;;;;;38.66;41.21;161383.70;1773919;80;21842;-79
2021/06/13 00:37:24;;;;;;;3.92;2.92;;;;;;;38.65;41.23;161381.08;1786680;80;21344;-80
2021/06/13 00:39:56;;;;;;;2.92;2.70;;;;;;;38.62;41.22;161372.97;1786378;80;21238;-80
2021/06/13 00:42:29;;;;;;;3.25;2.70;;;;;;;38.58;41.27;161362.23;1786594;80;21257;-79
2021/06/13 00:45:01;;;;;;;3.42;2.98;;;;;;;38.53;41.30;161348.86;1783247;79;21828;-79
2021/06/13 00:47:35;;;;;;;3.90;2.87;;;;;;;38.53;41.31;161348.86;1751664;80;21249;-80
2021/06/13 00:50:13;;;;;;;3.58;3.22;;;;;;;38.49;41.31;161336.75;1786579;80;21364;-79
2021/06/13 00:52:46;;;;;;;6.83;3.15;;;;;;;38.50;41.32;161339.44;1772795;81;21221;-79
2021/06/13 00:55:18;;;;;;;3.52;2.83;;;;;;;38.38;41.45;161307.28;1770292;81;21147;-78
2021/06/13 00:57:51;;;;;;;4.30;2.95;;;;;;;38.34;41.49;161296.59;1772735;81;21358;-78
2021/06/13 01:00:23;;;;;;;4.75;2.80;;;;;;;38.30;41.54;161285.86;1761689;79;21194;-79
2021/06/13 01:02:57;;;;;;;5.10;3.40;;;;;;;38.47;41.31;161331.44;1772674;81;21305;-80
2021/06/13 01:05:31;;;;;;;3.83;2.98;;;;;;;38.47;41.31;161331.44;1770219;81;21221;-79
2021/06/13 01:08:24;;;;;;;4.17;2.85;;;;;;;38.47;41.28;161331.44;1770325;81;21250;-80
2021/06/13 01:11:31;;;;;;;4.53;2.83;;;;;;;38.51;41.24;161342.12;1742179;82;21226;-80
2021/06/13 01:14:17;;;;;;;4.72;2.83;;;;;;;38.56;41.11;161355.55;1738137;81;21360;-81
2021/06/13 01:17:02;;;;;;;4.35;2.80;;;;;;;38.53;41.12;161348.86;1735979;82;21376;-80
2021/06/13 01:20:25;;;;;;;4.42;3.02;;;;;;;38.51;41.11;161343.50;1741547;81;21309;-80
2021/06/13 01:23:48;;;;;;;3.62;3.15;;;;;;;38.51;41.10;161343.50;1773040;81;21159;-80
2021/06/13 01:26:53;;;;;;;3.02;2.72;;;;;;;38.44;41.15;161323.37;1742205;82;21365;-80
2021/06/13 01:29:36;;;;;;;4.65;3.50;;;;;;;38.54;41.02;161351.50;1741268;81;21198;-80
2021/06/13 01:32:18;;;;;;;4.20;3.20;;;;;;;38.52;40.97;161344.81;1736167;82;21166;-80
2021/06/13 01:34:58;;;;;;;3.67;2.95;;;;;;;38.52;40.92;161344.81;1758363;81;21175;-80
2021/06/13 01:37:35;;;;;;;6.08;3.30;;;;;;;38.47;40.94;161332.75;1739956;81;21235;-80
2021/06/13 01:40:14;;;;;;;3.30;3.00;;;;;;;38.44;40.96;161324.70;1736043;82;21333;-80
2021/06/13 01:42:53;;;;;;;3.62;2.98;;;;;;;38.35;41.04;161300.59;1742239;82;21364;-80
2021/06/13 01:45:32;;;;;;;4.42;2.95;;;;;;;38.26;41.15;161276.48;1742283;82;21317;-80
2021/06/13 01:48:06;;;;;;;3.98;3.02;;;;;;;38.19;41.28;161257.70;1742296;82;21840;-80
2021/06/13 01:50:38;;;;;;;3.92;3.52;;;;;;;38.16;41.34;161249.64;1760561;81;21337;-79
2021/06/13 01:53:14;;;;;;;3.85;2.80;;;;;;;38.10;41.39;161233.53;1761094;80;21698;-79
2021/06/13 01:55:49;;;;;;;3.12;2.80;;;;;;;38.09;41.42;161230.86;1784093;80;21375;-80
2021/06/13 01:58:24;;;;;;;3.77;3.10;;;;;;;38.10;41.45;161233.53;1765404;80;21216;-79
2021/06/13 02:01:06;;;;;;;3.87;3.08;;;;;;;38.09;41.44;161230.86;1747756;82;21217;-79
2021/06/13 02:03:41;;;;;;;5.15;2.87;;;;;;;38.17;41.35;161252.33;1724197;80;22492;-79
2021/06/13 02:06:33;;;;;;;5.15;3.15;;;;;;;38.17;41.32;161252.33;1770577;80;21182;-79
2021/06/13 02:09:07;;;;;;;2.98;2.62;;;;;;;38.13;41.37;161241.59;1762318;79;21213;-79
2021/06/13 02:11:43;;;;;;;3.85;3.20;;;;;;;38.14;41.36;161242.91;1749905;82;21240;-80
2021/06/13 02:14:21;;;;;;;3.90;2.75;;;;;;;38.16;41.33;161249.64;1752329;80;21181;-79
2021/06/13 02:16:55;;;;;;;4.08;3.00;;;;;;;38.08;41.43;161226.86;1749643;82;21305;-79
2021/06/13 02:19:29;;;;;;;3.20;2.80;;;;;;;38.09;41.45;161229.55;1750017;80;21209;-79
2021/06/13 02:22:05;;;;;;;5.17;2.80;;;;;;;38.14;41.39;161242.91;1750148;80;21221;-80
2021/06/13 02:24:38;;;;;;;4.30;3.12;;;;;;;38.16;41.35;161249.64;1758714;80;21204;-79
2021/06/13 02:27:11;;;;;;;5.50;3.00;;;;;;;38.16;41.32;161249.64;1786239;80;21861;-80
2021/06/13 02:29:45;;;;;;;4.33;3.10;;;;;;;38.17;41.28;161250.97;1775501;80;21284;-80
2021/06/13 02:32:18;;;;;;;3.47;3.00;;;;;;;38.18;41.26;161253.64;1749880;82;21506;-80
2021/06/13 02:34:50;;;;;;;3.40;3.10;;;;;;;38.19;41.23;161257.70;1771279;80;21304;-80
2021/06/13 02:37:24;;;;;;;3.90;3.08;;;;;;;38.19;41.16;161256.33;1786465;80;21690;-80
2021/06/13 02:39:57;;;;;;;3.30;2.75;;;;;;;38.15;41.20;161246.97;1752796;81;21371;-80
2021/06/13 02:42:39;;;;;;;4.42;3.12;;;;;;;38.08;41.27;161228.17;1756305;80;21356;-80
2021/06/13 02:45:16;;;;;;;4.03;3.05;;;;;;;38.03;41.35;161213.44;1786365;80;21313;-80
2021/06/13 02:47:49;;;;;;;4.37;2.85;;;;;;;38.02;41.35;161212.13;1786536;80;21336;-80
2021/06/13 02:50:23;;;;;;;3.90;2.90;;;;;;;38.03;41.38;161213.44;1786015;80;21369;-80
2021/06/13 02:53:20;;;;;;;4.78;3.30;;;;;;;38.05;41.35;161220.17;1783736;80;21202;-79
2021/06/13 02:56:08;;;;;;;3.95;2.95;;;;;;;38.07;41.32;161225.53;1772441;81;21372;-79
2021/06/13 02:59:26;;;;;;;3.33;3.00;;;;;;;38.08;41.27;161226.86;1772750;81;21191;-79
2021/06/13 03:01:59;;;;;;;3.22;2.72;;;;;;;38.03;41.35;161214.81;1742172;82;21230;-80
2021/06/13 03:04:33;;;;;;;3.22;2.75;;;;;;;37.96;41.44;161194.70;1744860;81;21456;-79
2021/06/13 03:07:06;;;;;;;3.45;2.85;;;;;;;37.95;41.48;161190.70;1770140;81;22444;-80
2021/06/13 03:09:39;;;;;;;3.52;2.80;;;;;;;37.92;41.54;161182.66;1763181;81;21234;-79
2021/06/13 03:12:14;;;;;;;4.28;2.92;;;;;;;37.87;41.65;161169.23;1716114;82;21387;-79
2021/06/13 03:14:47;;;;;;;4.53;3.27;;;;;;;37.90;41.61;161177.28;1738821;81;21317;-79
2021/06/13 03:17:20;;;;;;;3.70;3.02;;;;;;;37.88;41.64;161173.28;1743377;81;22341;-79
2021/06/13 03:19:53;;;;;;;4.05;2.90;;;;;;;37.95;41.58;161190.70;1738370;81;21321;-80
2021/06/13 03:22:26;;;;;;;3.50;2.98;;;;;;;37.95;41.54;161190.70;1758773;81;21857;-80
2021/06/13 03:24:58;;;;;;;4.55;3.30;;;;;;;38.00;41.43;161206.75;1772365;81;21294;-80
2021/06/13 03:27:33;;;;;;;5.65;3.27;;;;;;;37.98;41.49;161198.70;1772877;81;21269;-80
2021/06/13 03:30:07;;;;;;;4.65;3.20;;;;;;;37.96;41.49;161193.39;1769877;81;21198;-80
2021/06/13 03:32:41;;;;;;;3.55;3.25;;;;;;;37.97;41.49;161197.39;1772508;81;21195;-80
2021/06/13 03:35:15;;;;;;;3.85;3.30;;;;;;;37.70;41.81;161124.98;1748606;81;22363;-79
2021/06/13 03:37:48;;;;;;;3.30;2.98;;;;;;;37.60;42.09;161096.89;1751153;81;21234;-80
2021/06/13 03:40:21;;;;;;;4.53;3.30;;;;;;;37.56;42.22;161087.48;1762465;81;21312;-80
2021/06/13 03:42:54;;;;;;;3.85;2.92;;;;;;;37.65;42.14;161110.25;1772749;81;21674;-80
2021/06/13 03:45:26;;;;;;;3.72;3.10;;;;;;;37.80;41.94;161151.81;1770300;81;21693;-80
2021/06/13 03:47:59;;;;;;;4.72;3.08;;;;;;;37.91;41.79;161179.97;1772785;81;21396;-80
2021/06/13 03:50:32;;;;;;;3.80;3.17;;;;;;;37.95;41.73;161190.70;1749873;81;21824;-80
2021/06/13 03:53:04;;;;;;;4.03;3.05;;;;;;;37.96;41.77;161193.39;1736287;81;21864;-79
2021/06/13 03:55:36;;;;;;;5.28;3.55;;;;;;;37.91;41.79;161179.97;1750224;80;21213;-79
2021/06/13 03:58:11;;;;;;;3.08;2.77;;;;;;;37.89;41.90;161175.97;1749782;82;21240;-79
2021/06/13 04:00:44;;;;;;;5.35;3.10;;;;;;;37.91;41.91;161181.28;1752561;80;21189;-79
2021/06/13 04:03:19;;;;;;;6.65;3.02;;;;;;;37.95;41.89;161190.70;1784099;80;21253;-79
2021/06/13 04:05:51;;;;;;;5.10;3.12;;;;;;;37.94;41.91;161189.34;1759947;80;21515;-79
2021/06/13 04:08:24;;;;;;;3.75;3.30;;;;;;;37.92;41.98;161183.97;1749847;82;21194;-79
2021/06/13 04:10:56;;;;;;;4.30;3.05;;;;;;;37.83;42.09;161159.88;1754879;80;21217;-79
2021/06/13 04:13:30;;;;;;;3.10;2.80;;;;;;;37.85;42.13;161163.92;1769300;80;21166;-80
2021/06/13 04:16:07;;;;;;;3.35;2.67;;;;;;;37.89;42.10;161175.97;1771637;80;21733;-79
2021/06/13 04:18:40;;;;;;;3.15;2.85;;;;;;;37.90;42.11;161178.66;1752216;80;21241;-79
2021/06/13 04:21:13;;;;;;;3.72;3.02;;;;;;;37.90;42.11;161178.66;1723248;81;21376;-78
2021/06/13 04:23:46;;;;;;;4.20;3.25;;;;;;;37.93;42.08;161186.66;1749365;82;21406;-78
2021/06/13 04:26:21;;;;;;;4.72;3.10;;;;;;;37.92;42.15;161182.66;1754716;80;21213;-79
2021/06/13 04:28:54;;;;;;;5.95;3.40;;;;;;;37.88;42.21;161171.92;1750017;80;21221;-79
2021/06/13 04:31:27;;;;;;;3.90;3.17;;;;;;;37.91;42.21;161181.28;1752426;80;21174;-78
2021/06/13 04:33:59;;;;;;;4.67;3.12;;;;;;;37.93;42.24;161185.34;1758048;80;21138;-79
2021/06/13 04:36:31;;;;;;;3.75;3.20;;;;;;;37.94;42.23;161188.02;1785666;80;21332;-79
2021/06/13 04:39:04;;;;;;;4.78;3.10;;;;;;;37.95;42.25;161192.02;1786299;80;21199;-79
2021/06/13 04:41:38;;;;;;;4.30;3.22;;;;;;;37.99;42.20;161204.08;1785819;80;21911;-80
2021/06/13 04:44:10;;;;;;;4.92;3.50;;;;;;;37.97;42.26;161197.39;1785767;80;21718;-80
2021/06/13 04:46:42;;;;;;;4.25;3.10;;;;;;;37.98;42.26;161201.39;1786311;80;21194;-79
2021/06/13 04:49:15;;;;;;;5.70;2.98;;;;;;;37.96;42.32;161194.70;1786027;80;21190;-80
2021/06/13 04:51:50;;;;;;;3.90;3.00;;;;;;;37.95;42.40;161192.02;1786157;80;21343;-79
2021/06/13 04:54:45;;;;;;;4.97;3.70;;;;;;;37.98;42.42;161198.70;1786388;80;21182;-79
2021/06/13 04:57:34;;;;;;;3.90;3.37;;;;;;;37.96;42.48;161193.39;1786574;80;21332;-80
2021/06/13 05:00:06;;;;;;;4.55;3.42;;;;;;;38.02;42.43;161210.81;1782935;80;21387;-79
2021/06/13 05:02:41;;;;;;;5.25;3.52;;;;;;;38.00;42.49;161206.75;1749939;82;21847;-79
2021/06/13 05:05:15;;;;;;;4.87;3.42;;;;;;;38.09;42.49;161230.86;1750455;80;21362;-79
2021/06/13 05:07:47;;;;;;;5.97;3.80;;;;;;;38.23;42.25;161267.13;1723878;82;21320;-80
2021/06/13 05:10:20;;;;;;;5.25;3.80;;;;;;;38.26;42.26;161276.48;1769469;80;21170;-79
2021/06/13 05:12:54;;;;;;;6.35;4.30;;;;;;;38.32;42.17;161292.53;1786268;80;21868;-80
2021/06/13 05:15:27;;;;;;;6.92;4.20;;;;;;;38.33;42.31;161295.22;1786324;80;21305;-79
2021/06/13 05:17:59;;;;;;;5.70;3.95;;;;;;;38.25;42.36;161273.81;1785999;80;21322;-79
2021/06/13 05:20:31;;;;;;;10.68;5.53;;;;;;;38.20;42.43;161260.33;1750918;80;21742;-79
2021/06/13 05:23:05;;;;;;;9.88;5.42;;;;;;;38.21;42.57;161261.69;1749836;82;21166;-79
2021/06/13 05:25:39;;;;;;;10.75;5.75;;;;;;;38.18;42.63;161255.02;1751214;80;21751;-79
2021/06/13 05:28:11;;;;;;;8.45;4.95;;;;;;;38.21;42.72;161263.02;1749824;82;21275;-79
2021/06/13 05:30:43;;;;;;;10.48;5.10;;;;;;;38.20;42.75;161259.02;1752617;80;21182;-79
2021/06/13 05:33:16;;;;;;;9.08;4.97;;;;;;;38.23;42.76;161268.44;1749915;82;21232;-80
2021/06/13 05:35:49;;;;;;;9.73;4.37;;;;;;;37.98;43.20;161200.06;1785763;79;21340;-80
2021/06/13 05:38:23;;;;;;;7.30;4.53;;;;;;;37.97;43.35;161197.39;1786720;80;21832;-76
2021/06/13 05:40:57;;;;;;;5.25;4.30;;;;;;;38.04;44.07;161216.13;1758076;80;21890;-79
2021/06/13 05:43:30;;;;;;;4.83;4.05;;;;;;;38.24;44.66;161269.80;1750128;80;21209;-77
2021/06/13 05:46:03;;;;;;;11.63;6.28;;;;;;;38.28;45.16;161280.48;1749872;80;21185;-77
2021/06/13 05:48:36;;;;;;;18.85;10.50;;;;;;;38.28;45.77;161281.84;1749951;82;21240;-81
2021/06/13 05:51:08;;;;;;;11.78;8.10;;;;;;;38.31;46.18;161289.86;1781645;80;21355;-81
2021/06/13 05:53:41;;;;;;;7.92;4.75;;;;;;;38.34;46.49;161297.91;1786119;80;21364;-78
2021/06/13 05:56:14;;;;;;;6.45;3.72;;;;;;;38.36;46.16;161303.28;1786064;80;21780;-77
2021/06/13 05:58:46;;;;;;;6.97;4.12;;;;;;;38.42;45.94;161318.02;1786501;80;21984;-77
2021/06/13 06:01:19;;;;;;;5.70;3.92;;;;;;;38.44;46.10;161323.37;1786319;80;21345;-79
2021/06/13 06:03:54;;;;;;;4.72;3.58;;;;;;;38.49;45.79;161338.13;1786508;80;21225;-76
2021/06/13 06:06:27;;;;;;;5.47;4.08;;;;;;;38.52;45.66;161346.17;1786303;80;21182;-79
2021/06/13 06:08:59;;;;;;;6.85;3.90;;;;;;;38.58;45.55;161362.23;1773969;80;21340;-79
2021/06/13 06:11:34;;;;;;;14.18;5.87;;;;;;;38.65;45.32;161381.08;1755508;81;21218;-77
2021/06/13 06:14:07;;;;;;;8.63;4.60;;;;;;;38.75;45.12;161406.50;1773295;80;21210;-78
2021/06/13 06:16:45;;;;;;;7.33;4.03;;;;;;;38.85;44.92;161434.67;1786541;79;21785;-77
2021/06/13 06:19:17;;;;;;;8.18;3.70;;;;;;;38.91;44.76;161450.73;1783921;80;21293;-76
2021/06/13 06:21:50;;;;;;;6.83;3.75;;;;;;;38.93;44.74;161454.78;1786276;80;21820;-77
2021/06/13 06:24:24;;;;;;;5.67;3.70;;;;;;;38.96;44.55;161465.47;1786320;80;21198;-75
2021/06/13 06:26:56;;;;;;;9.13;5.25;;;;;;;39.01;44.57;161477.53;1786571;80;21344;-79
2021/06/13 06:29:29;;;;;;;6.78;4.30;;;;;;;39.11;44.42;161504.44;1772712;80;21387;-78
2021/06/13 06:32:02;;;;;;;3.40;2.87;;;;;;;39.15;44.36;161515.12;1749927;82;21280;-79
2021/06/13 06:34:35;;;;;;;5.55;4.37;;;;;;;39.16;43.61;161517.81;1767526;80;21221;-78
2021/06/13 06:37:09;;;;;;;5.15;3.70;;;;;;;39.18;43.48;161523.19;1786573;80;21732;-79
2021/06/13 06:39:42;;;;;;;5.90;3.77;;;;;;;39.24;43.63;161539.25;1786302;80;21320;-78
2021/06/13 06:42:15;;;;;;;3.95;3.15;;;;;;;39.24;43.73;161539.25;1786429;80;21213;-78
2021/06/13 06:44:48;;;;;;;3.77;2.90;;;;;;;39.30;43.53;161555.37;1786389;80;21212;-79
2021/06/13 06:47:22;;;;;;;2.98;2.75;;;;;;;39.38;42.99;161576.81;1735907;80;21169;-78
2021/06/13 06:49:57;;;;;;;5.15;3.00;;;;;;;39.42;42.73;161588.86;1786237;80;21297;-79
2021/06/13 06:52:31;;;;;;;4.20;2.72;;;;;;;39.54;42.05;161619.78;1786387;80;21336;-78
2021/06/13 06:55:06;;;;;;;5.12;2.80;;;;;;;39.58;41.43;161631.84;1786112;80;21209;-76
2021/06/13 06:57:43;;;;;;;3.08;2.70;;;;;;;39.61;41.70;161638.53;1782883;79;21329;-79
2021/06/13 07:00:15;;;;;;;3.75;2.90;;;;;;;39.52;41.80;161615.78;1772148;81;22289;-78
2021/06/13 07:02:49;;;;;;;4.47;2.40;;;;;;;39.53;41.79;161617.09;1772707;81;21219;-79
2021/06/13 07:05:23;;;;;;;2.50;2.30;;;;;;;39.51;42.05;161613.09;1769896;81;22349;-78
2021/06/13 07:07:57;;;;;;;6.95;3.12;;;;;;;39.55;41.52;161623.78;1772789;81;21166;-79
2021/06/13 07:10:29;;;;;;;12.28;4.97;;;;;;;39.61;41.04;161638.53;1750757;81;21384;-78
2021/06/13 07:13:05;;;;;;;8.48;3.80;;;;;;;39.62;41.20;161641.22;1740050;81;21820;-79
2021/06/13 07:15:37;;;;;;;10.23;5.53;;;;;;;39.65;41.53;161650.59;1736103;81;21336;-79
2021/06/13 07:18:11;;;;;;;6.70;4.08;;;;;;;39.76;41.59;161678.78;1736346;81;21388;-79
2021/06/13 07:20:44;;;;;;;6.30;3.72;;;;;;;39.81;41.89;161693.53;1736437;81;21729;-78
2021/06/13 07:23:17;;;;;;;3.67;3.27;;;;;;;39.84;41.82;161700.22;1741726;81;21206;-79
2021/06/13 07:25:50;;;;;;;3.02;2.65;;;;;;;39.90;41.65;161716.34;1772467;81;21852;-78
2021/06/13 07:28:24;;;;;;;3.90;2.98;;;;;;;39.91;41.56;161720.36;1772726;81;21242;-79
2021/06/13 07:30:57;;;;;;;4.65;2.67;;;;;;;39.95;41.74;161732.47;1772504;81;21348;-78
2021/06/13 07:33:30;;;;;;;6.58;2.90;;;;;;;40.09;41.04;161770.03;1738577;81;21895;-78
2021/06/13 07:36:05;;;;;;;3.45;2.90;;;;;;;40.17;40.83;161790.17;1772627;81;21373;-76
2021/06/13 07:38:38;;;;;;;3.22;2.92;;;;;;;40.23;40.55;161807.61;1741096;81;21344;-76
2021/06/13 07:41:11;;;;;;;3.95;2.87;;;;;;;40.34;40.21;161835.81;1736518;81;21387;-78
2021/06/13 07:43:45;;;;;;;4.30;3.30;;;;;;;40.46;40.09;161869.37;1736203;81;21190;-78
2021/06/13 07:46:17;;;;;;;3.40;3.00;;;;;;;40.53;40.04;161886.83;1736403;81;21246;-80
2021/06/13 07:48:53;;;;;;;4.92;2.72;;;;;;;40.60;40.08;161906.97;1736400;81;21175;-79
2021/06/13 07:51:27;;;;;;;3.95;3.08;;;;;;;40.65;40.15;161919.03;1746915;81;21907;-78
2021/06/13 07:54:00;;;;;;;5.37;2.90;;;;;;;40.69;40.33;161931.09;1736357;81;21396;-78
2021/06/13 07:56:33;;;;;;;4.03;3.42;;;;;;;40.75;40.35;161945.91;1736074;82;21423;-78
2021/06/13 07:59:06;;;;;;;3.85;2.83;;;;;;;40.79;40.03;161957.98;1742265;80;21406;-78
2021/06/13 08:01:38;;;;;;;4.03;2.60;;;;;;;40.87;39.92;161978.13;1786388;80;21415;-78
2021/06/13 08:04:11;;;;;;;3.65;3.10;;;;;;;40.89;40.22;161984.81;1786112;80;21753;-78
2021/06/13 08:06:46;;;;;;;2.62;2.40;;;;;;;40.96;40.33;162003.64;1775062;80;21886;-77
2021/06/13 08:09:20;;;;;;;6.35;3.25;;;;;;;41.03;40.26;162022.41;1774852;79;21193;-79
2021/06/13 08:11:55;;;;;;;2.90;2.52;;;;;;;41.05;40.36;162029.11;1786457;80;22265;-79
2021/06/13 08:14:28;;;;;;;2.80;2.60;;;;;;;41.14;40.25;162051.94;1786373;80;21178;-79
2021/06/13 08:17:03;;;;;;;6.42;3.33;;;;;;;41.18;40.08;162062.75;1786436;79;21225;-78
2021/06/13 08:19:37;;;;;;;3.27;2.65;;;;;;;41.27;39.62;162088.22;1785986;80;21261;-79
2021/06/13 08:22:11;;;;;;;3.22;2.87;;;;;;;41.26;39.54;162085.53;1784201;79;21404;-79
2021/06/13 08:24:45;;;;;;;3.20;2.90;;;;;;;41.17;39.34;162061.38;1783986;80;21237;-79
2021/06/13 08:27:19;;;;;;;4.92;2.98;;;;;;;41.13;39.70;162049.25;1786601;80;21383;-79
2021/06/13 08:29:51;;;;;;;3.15;2.60;;;;;;;41.12;39.36;162047.94;1786249;79;21364;-80
2021/06/13 08:32:25;;;;;;;4.00;3.40;;;;;;;41.11;39.09;162045.23;1786459;80;21174;-79
2021/06/13 08:35:02;;;;;;;4.58;2.77;;;;;;;41.07;38.90;162034.48;1767372;80;21383;-78
2021/06/13 08:37:37;;;;;;;3.70;2.95;;;;;;;41.07;38.90;162034.48;1752458;80;21759;-78
2021/06/13 08:40:11;;;;;;;3.85;2.92;;;;;;;41.04;39.21;162025.09;1750019;80;21240;-80
2021/06/13 08:42:44;;;;;;;3.60;3.00;;;;;;;40.94;39.47;161998.27;1750086;80;21228;-78
2021/06/13 08:45:18;;;;;;;3.83;2.70;;;;;;;40.83;39.84;161968.73;1755514;81;21285;-78
2021/06/13 08:47:54;;;;;;;3.27;2.98;;;;;;;41.02;38.91;162019.72;1755586;82;21194;-78
2021/06/13 08:50:29;;;;;;;4.10;3.08;;;;;;;41.17;38.61;162060.06;1755658;82;21198;-80
2021/06/13 08:53:02;;;;;;;5.22;2.75;;;;;;;41.31;38.86;162097.66;1755461;82;21225;-79
2021/06/13 08:55:38;;;;;;;3.72;3.22;;;;;;;41.34;39.31;162105.67;1755569;81;21222;-79
2021/06/13 08:58:14;;;;;;;3.33;3.02;;;;;;;41.34;39.31;162105.67;1755355;81;21186;-78
2021/06/13 09:00:47;;;;;;;4.20;3.08;;;;;;;41.52;38.51;162154.03;1755530;82;21268;-79
2021/06/13 09:03:23;;;;;;;5.75;3.05;;;;;;;41.57;38.50;162167.47;1781205;80;21174;-79
2021/06/13 09:05:55;;;;;;;3.00;2.67;;;;;;;41.56;38.62;162164.78;1786497;80;21408;-79
2021/06/13 09:08:40;;;;;;;4.75;2.98;;;;;;;41.61;38.19;162179.56;1770241;80;21284;-79
2021/06/13 09:11:31;;;;;;;3.50;3.02;;;;;;;41.65;38.55;162189.00;1781667;80;21237;-78
2021/06/13 09:14:16;;;;;;;4.42;3.52;;;;;;;41.67;38.33;162194.37;1786286;80;22086;-78
2021/06/13 09:16:52;;;;;;;3.70;3.27;;;;;;;41.68;38.98;162198.37;1786433;79;21257;-80
2021/06/13 09:19:26;;;;;;;5.55;2.95;;;;;;;41.68;38.98;162198.37;1786561;80;21321;-78
2021/06/13 09:22:02;;;;;;;3.40;2.80;;;;;;;41.59;39.21;162172.86;1786547;80;21217;-80
2021/06/13 09:24:37;;;;;;;3.85;2.80;;;;;;;41.50;38.53;162148.66;1745648;80;21182;-78
2021/06/13 09:27:13;;;;;;;9.85;3.42;;;;;;;41.34;38.41;162107.05;1790967;79;21825;-78
2021/06/13 09:29:55;;;;;;;7.10;3.37;;;;;;;41.19;39.34;162066.75;1761895;80;21328;-79
2021/06/13 09:32:27;;;;;;;5.67;3.35;;;;;;;41.16;40.31;162058.69;1760859;80;21272;-80
2021/06/13 09:35:22;;;;;;;6.03;3.05;;;;;;;41.06;41.57;162031.80;1759086;80;21217;-80
2021/06/13 09:38:14;;;;;;;6.22;3.10;;;;;;;41.00;42.75;162015.72;1734364;80;21331;-79
2021/06/13 09:40:51;;;;;;;7.47;4.05;;;;;;;41.02;43.48;162021.09;1774104;80;21209;-79
2021/06/13 09:43:27;;;;;;;6.08;3.60;;;;;;;41.11;44.27;162045.23;1785995;79;21226;-79
2021/06/13 09:46:08;;;;;;;6.37;3.80;;;;;;;40.80;45.33;161959.36;1764790;80;21198;-79
2021/06/13 09:48:44;;;;;;;14.85;4.45;;;;;;;40.54;46.17;161890.83;1767010;80;21348;-79
2021/06/13 09:51:20;;;;;;;9.58;4.58;;;;;;;40.15;47.89;161784.80;1761349;80;21540;-78
2021/06/13 09:53:57;;;;;;;6.70;4.35;;;;;;;40.15;47.89;161784.80;1763369;80;21828;-77
2021/06/13 09:56:39;;;;;;;7.95;4.17;;;;;;;39.86;49.23;161706.97;1783251;80;21304;-78
2021/06/13 10:03:10;;;;;;;9.43;4.75;;;;;;;39.93;49.27;161727.09;1754789;81;21866;-76
2021/06/13 10:05:59;;;;;;;8.60;4.95;;;;;;;39.93;49.27;161727.09;1748967;79;21789;-78
2021/06/13 10:08:32;;;;;;;8.60;5.03;;;;;;;39.87;50.46;161708.28;1744999;81;21235;-77
2021/06/13 10:11:06;;;;;;;7.60;4.67;;;;;;;39.96;50.25;161733.84;1746192;80;21388;-77
2021/06/13 10:13:48;;;;;;;7.28;4.80;;;;;;;39.80;51.90;161690.84;1747278;81;21832;-77
2021/06/13 10:16:39;;;;;;;5.33;4.47;;;;;;;39.81;52.63;161692.22;1742326;81;21250;-79
2021/06/13 10:19:24;;;;;;;6.37;4.50;;;;;;;39.88;55.41;161712.30;1745806;80;21187;-77
2021/06/13 10:22:02;;;;;;;7.37;5.33;;;;;;;40.20;54.78;161798.23;1745421;81;21369;-80
2021/06/13 10:24:39;;;;;;;9.53;4.85;;;;;;;40.20;54.78;161798.23;1745063;81;21713;-79
2021/06/13 10:27:17;;;;;;;8.65;4.50;;;;;;;40.14;54.55;161782.11;1749732;81;21206;-80
2021/06/13 10:29:55;;;;;;;6.20;4.80;;;;;;;40.19;54.18;161796.86;1742925;81;21191;-80
2021/06/13 10:32:30;;;;;;;5.47;4.00;;;;;;;40.17;53.61;161790.17;1746008;81;21911;-78
2021/06/13 10:35:06;;;;;;;3.05;2.42;;;;;;;40.21;51.68;161800.92;1746628;81;21187;-78
2021/06/13 10:37:41;;;;;;;5.42;2.12;;;;;;;40.13;49.48;161780.78;1747224;81;21227;-75
2021/06/13 10:40:17;;;;;;;4.20;2.60;;;;;;;40.09;46.91;161768.72;1751062;81;21333;-79
2021/06/13 10:42:54;;;;;;;6.12;2.30;;;;;;;39.93;46.12;161724.47;1745476;80;21198;-80
2021/06/13 10:45:34;;;;;;;2.40;2.02;;;;;;;39.82;46.10;161694.84;1740394;81;21345;-79
2021/06/13 10:48:12;;;;;;;1.90;1.70;;;;;;;39.72;46.45;161668.03;1750481;81;21325;-79
2021/06/13 10:50:51;;;;;;;4.00;2.00;;;;;;;39.63;46.84;161645.28;1743243;81;21360;-79
2021/06/13 10:53:38;;;;;;;3.40;1.80;;;;;;;39.51;47.06;161613.09;1748256;81;21361;-79
2021/06/13 10:56:18;;;;;;;1.70;1.60;;;;;;;39.38;47.26;161578.17;1741623;81;21754;-78
2021/06/13 10:58:56;;;;;;;1.80;1.62;;;;;;;39.24;47.45;161540.63;1740414;81;21709;-80
2021/06/13 11:01:32;;;;;;;2.47;2.10;;;;;;;39.26;47.36;161544.63;1747511;81;21203;-78
2021/06/13 11:04:12;;;;;;;1.85;1.60;;;;;;;39.19;47.48;161525.88;1744203;81;21793;-78
2021/06/13 11:06:47;;;;;;;1.85;1.52;;;;;;;39.17;47.67;161520.50;1750018;80;21164;-77
2021/06/13 11:09:27;;;;;;;4.45;1.72;;;;;;;39.13;47.92;161509.77;1751535;81;21297;-78
2021/06/13 11:12:00;;;;;;;2.17;1.67;;;;;;;39.02;48.54;161480.22;1741295;81;21725;-78
2021/06/13 11:14:37;;;;;;;2.90;1.72;;;;;;;39.00;49.14;161476.22;1752834;81;21257;-79
2021/06/13 11:17:14;;;;;;;3.37;1.52;;;;;;;39.03;49.37;161484.28;1746396;81;21384;-77
2021/06/13 11:19:51;;;;;;;1.45;1.30;;;;;;;38.95;49.69;161460.16;1727335;81;21167;-79
2021/06/13 11:22:33;;;;;;;1.60;1.30;;;;;;;38.93;50.31;161456.11;1752647;81;21353;-79
2021/06/13 11:25:11;;;;;;;3.60;1.02;;;;;;;38.91;51.24;161450.73;1746241;81;21179;-79
2021/06/13 11:28:24;;;;;;;1.75;1.20;;;;;;;38.98;51.66;161469.53;1753567;79;21295;-79
2021/06/13 11:31:13;;;;;;;1.95;1.10;;;;;;;39.06;51.22;161492.28;1747204;81;21290;-77
2021/06/13 11:33:51;;;;;;;1.75;1.10;;;;;;;39.28;50.41;161550.00;1745276;81;22374;-78
2021/06/13 11:36:34;;;;;;;0.90;0.90;;;;;;;39.33;48.84;161564.75;1746787;81;21909;-78
2021/06/13 11:39:12;;;;;;;1.00;0.90;;;;;;;39.37;47.91;161575.48;1757201;81;21376;-78
2021/06/13 11:41:50;;;;;;;1.00;1.00;;;;;;;39.42;46.55;161587.55;1743717;81;21317;-78
2021/06/13 11:44:29;;;;;;;1.32;1.17;;;;;;;39.42;45.80;161588.86;1748063;81;21191;-78
2021/06/13 11:47:29;;;;;;;2.10;0.90;;;;;;;39.50;45.34;161608.98;1743433;81;21261;-78
2021/06/13 11:50:05;;;;;;;1.82;1.30;;;;;;;39.50;45.67;161608.98;1741602;81;21701;-78
2021/06/13 11:52:54;;;;;;;1.07;0.90;;;;;;;39.60;46.12;161635.84;1744799;81;22505;-78
2021/06/13 11:55:52;;;;;;;1.10;1.00;;;;;;;39.62;45.92;161641.22;1747917;81;21227;-79
2021/06/13 11:58:24;;;;;;;1.10;1.00;;;;;;;39.65;45.17;161650.59;1749201;81;21171;-77
2021/06/13 12:00:57;;;;;;;1.15;0.85;;;;;;;39.67;44.76;161655.97;1751113;81;21206;-77
2021/06/13 12:03:30;;;;;;;1.17;0.90;;;;;;;39.67;44.33;161654.66;1747106;80;21186;-77
2021/06/13 12:06:06;;;;;;;1.45;0.98;;;;;;;39.61;43.78;161639.91;1743456;79;21693;-78
2021/06/13 12:08:42;;;;;;;1.27;1.07;;;;;;;39.60;42.91;161637.22;1746267;81;21203;-78
2021/06/13 12:11:43;;;;;;;0.98;0.82;;;;;;;39.59;42.65;161633.16;1751700;81;21348;-77